createdAt,value
2018-12-20T00:03:12.584Z,100232.80
2018-12-20T00:08:16.016Z,100235.84
2018-12-20T00:13:19.400Z,100234.63
2018-12-20T00:18:22.977Z,100231.22
2018-12-20T00:23:26.312Z,100230.25
2018-12-20T00:28:29.593Z,100222.68
2018-12-20T00:33:32.885Z,100232.44
2018-12-20T00:38:36.331Z,100226.70
2018-12-20T00:43:39.660Z,100226.58
2018-12-20T00:48:42.986Z,100217.94
2018-12-20T00:53:46.336Z,100220.35
2018-12-20T00:58:49.745Z,100230.37
2018-12-20T01:03:53.239Z,100232.20
2018-12-20T01:08:56.621Z,100227.20
2018-12-20T01:13:59.894Z,100232.07
2018-12-20T01:19:03.273Z,100240.75
2018-12-20T01:24:06.714Z,100245.03
2018-12-20T01:29:10.080Z,100244.77
2018-12-20T01:34:13.498Z,100246.86
2018-12-20T01:39:16.868Z,100247.09
2018-12-20T01:44:20.293Z,100245.74
2018-12-20T01:49:23.801Z,100241.72
2018-12-20T01:54:27.115Z,100252.70
2018-12-20T01:59:30.566Z,100255.76
2018-12-20T02:04:34.039Z,100250.52
2018-12-20T02:09:37.468Z,100253.20
2018-12-20T02:14:40.963Z,100251.63
2018-12-20T02:19:44.326Z,100246.48
2018-12-20T02:24:47.782Z,100244.66
2018-12-20T02:29:51.217Z,100248.69
2018-12-20T02:34:54.679Z,100246.47
2018-12-20T02:39:58.042Z,100235.13
2018-12-20T02:45:01.376Z,100228.31
2018-12-20T02:50:06.751Z,100224.02
2018-12-20T02:55:10.033Z,100224.28
2018-12-20T03:00:13.644Z,100220.88
2018-12-20T03:05:17.253Z,100222.34
2018-12-20T03:10:20.792Z,100217.20
2018-12-20T03:15:24.100Z,100214.28
2018-12-20T03:20:27.373Z,100216.48
2018-12-20T03:25:30.646Z,100206.47
2018-12-20T03:30:33.966Z,100211.61
2018-12-20T03:35:37.252Z,100209.27
2018-12-20T03:40:40.577Z,100207.69
2018-12-20T03:45:44.083Z,100202.45
2018-12-20T03:50:47.495Z,100204.41
2018-12-20T03:55:50.917Z,100203.91
2018-12-20T04:00:54.269Z,100194.17
2018-12-20T04:05:57.832Z,100185.36
2018-12-20T04:11:01.479Z,100182.45
2018-12-20T04:16:04.996Z,100182.70
2018-12-20T04:21:08.402Z,100187.80
2018-12-20T04:26:11.793Z,100197.08
2018-12-20T04:31:15.077Z,100188.66
2018-12-20T04:36:18.568Z,100189.28
2018-12-20T04:41:22.002Z,100196.57
2018-12-20T04:46:25.490Z,100203.91
2018-12-20T04:51:28.830Z,100206.59
2018-12-20T04:56:32.204Z,100197.94
2018-12-20T05:01:35.637Z,100189.77
2018-12-20T05:06:39.038Z,100194.77
2018-12-20T05:11:42.519Z,100195.12
2018-12-20T05:16:46.044Z,100188.79
2018-12-20T05:21:49.460Z,100193.80
2018-12-20T05:26:52.866Z,100185.61
2018-12-20T05:31:56.333Z,100188.41
2018-12-20T05:36:59.778Z,100190.63
2018-12-20T05:42:03.577Z,100189.77
2018-12-20T05:47:07.029Z,100198.80
2018-12-20T05:52:10.319Z,100199.59
2018-12-20T05:57:13.700Z,100205.94
2018-12-20T06:02:17.162Z,100202.75
2018-12-20T06:07:20.530Z,100197.52
2018-12-20T06:12:23.941Z,100198.61
2018-12-20T06:17:27.543Z,100202.05
2018-12-20T06:22:30.944Z,100197.31
2018-12-20T06:27:34.466Z,100205.48
2018-12-20T06:32:37.767Z,100201.83
2018-12-20T06:37:41.068Z,100204.77
2018-12-20T06:42:44.357Z,100203.67
2018-12-20T06:47:47.644Z,100212.56
2018-12-20T06:52:50.928Z,100210.25
2018-12-20T06:57:54.218Z,100210.11
2018-12-20T07:02:57.588Z,100203.75
2018-12-20T07:08:00.873Z,100211.55
2018-12-20T07:13:05.430Z,100215.80
2018-12-20T07:18:08.910Z,100215.68
2018-12-20T07:23:12.205Z,100226.17
2018-12-20T07:28:15.572Z,100229.06
2018-12-20T07:33:18.865Z,100229.19
2018-12-20T07:38:22.148Z,100236.74
2018-12-20T07:43:25.450Z,100233.36
2018-12-20T07:48:32.271Z,100238.91
2018-12-20T07:53:34.064Z,100233.89
2018-12-20T07:58:37.344Z,100233.41
2018-12-20T08:03:40.675Z,100246.12
2018-12-20T08:08:44.016Z,100250.80
2018-12-20T08:13:47.292Z,100250.77
2018-12-20T08:18:50.575Z,100235.82
2018-12-20T08:23:53.873Z,100238.36
2018-12-20T08:28:57.161Z,100236.27
2018-12-20T08:34:00.453Z,100242.59
2018-12-20T08:39:08.502Z,100236.30
2018-12-20T08:44:11.778Z,100224.98
2018-12-20T08:49:15.057Z,100233.52
2018-12-20T08:59:27.929Z,100232.38
2018-12-20T09:04:31.236Z,100237.27
2018-12-20T09:09:34.821Z,100243.33
2018-12-20T09:14:38.133Z,100250.86
2018-12-20T09:19:41.428Z,100254.52
2018-12-20T09:24:44.719Z,100247.91
2018-12-20T09:29:48.008Z,100249.12
2018-12-20T09:34:51.280Z,100243.19
2018-12-20T09:39:54.573Z,100243.06
2018-12-20T09:44:57.889Z,100230.29
2018-12-20T09:50:01.181Z,100223.34
2018-12-20T09:55:04.730Z,100226.38
2018-12-20T10:00:09.894Z,100225.44
2018-12-20T10:05:13.172Z,100216.80
2018-12-20T10:10:16.465Z,100205.80
2018-12-20T10:15:19.759Z,100207.91
2018-12-20T10:20:23.093Z,100204.64
2018-12-20T10:25:26.381Z,100204.29
2018-12-20T10:30:29.668Z,100203.19
2018-12-20T10:35:32.969Z,100193.16
2018-12-20T10:40:36.274Z,100191.58
2018-12-20T10:45:39.586Z,100196.11
2018-12-20T10:50:42.882Z,100191.59
2018-12-20T10:55:46.157Z,100185.85
2018-12-20T11:00:54.915Z,100175.63
2018-12-20T11:06:04.255Z,100180.50
2018-12-20T11:11:09.504Z,100174.05
2018-12-20T11:16:12.797Z,100168.68
2018-12-20T11:21:16.296Z,100167.70
2018-12-20T11:26:19.605Z,100158.53
2018-12-20T11:31:22.913Z,100153.16
2018-12-20T11:36:26.221Z,100147.44
2018-12-20T11:41:29.737Z,100147.92
2018-12-20T11:46:33.020Z,100147.17
2018-12-20T11:51:36.321Z,100143.90
2018-12-20T11:56:39.628Z,100147.53
2018-12-20T12:01:42.918Z,100152.28
2018-12-20T12:06:46.637Z,100152.77
2018-12-20T12:11:49.948Z,100156.93
2018-12-20T12:16:53.245Z,100148.62
2018-12-20T12:21:56.555Z,100149.08
2018-12-20T12:26:59.844Z,100144.09
2018-12-20T12:32:03.154Z,100140.70
2018-12-20T12:37:06.544Z,100144.85
2018-12-20T12:42:09.918Z,100148.62
2018-12-20T12:47:13.219Z,100154.97
2018-12-20T12:52:16.509Z,100148.62
2018-12-20T12:57:22.155Z,100145.83
2018-12-20T13:02:25.127Z,100143.28
2018-12-20T13:07:28.445Z,100140.95
2018-12-20T13:12:31.753Z,100144.85
2018-12-20T13:17:35.045Z,100142.56
2018-12-20T13:22:38.339Z,100137.91
2018-12-20T13:27:41.650Z,100146.06
2018-12-20T13:32:44.969Z,100137.78
2018-12-20T13:37:48.414Z,100149.98
2018-12-20T13:42:51.787Z,100146.45
2018-12-20T13:47:55.140Z,100153.03
2018-12-20T13:52:59.009Z,100160.47
2018-12-20T13:58:02.366Z,100154.47
2018-12-20T14:03:05.748Z,100160.23
2018-12-20T14:08:09.174Z,100157.55
2018-12-20T14:13:12.483Z,100161.91
2018-12-20T14:18:15.799Z,100164.11
2018-12-20T14:23:19.177Z,100159.36
2018-12-20T14:28:22.524Z,100165.09
2018-12-20T14:33:25.822Z,100159.81
2018-12-20T14:38:29.113Z,100171.54
2018-12-20T14:43:32.412Z,100161.16
2018-12-20T14:48:39.551Z,100158.97
2018-12-20T14:53:41.185Z,100161.06
2018-12-20T14:58:44.666Z,100173.73
2018-12-20T15:03:48.039Z,100170.95
2018-12-20T15:08:51.386Z,100177.63
2018-12-20T15:13:54.746Z,100184.11
2018-12-20T15:18:58.076Z,100181.92
2018-12-20T15:24:01.460Z,100188.39
2018-12-20T15:29:04.957Z,100195.34
2018-12-20T15:34:08.328Z,100193.28
2018-12-20T15:39:12.025Z,100203.27
2018-12-20T15:44:15.342Z,100201.92
2018-12-20T15:49:18.665Z,100209.00
2018-12-20T15:54:21.961Z,100204.25
2018-12-20T15:59:25.856Z,100210.83
2018-12-20T16:04:29.706Z,100212.80
2018-12-20T16:09:33.209Z,100210.83
2018-12-20T16:14:36.624Z,100211.45
2018-12-20T16:19:39.919Z,100217.05
2018-12-20T16:24:43.216Z,100209.39
2018-12-20T16:29:46.548Z,100219.73
2018-12-20T16:34:49.872Z,100219.61
2018-12-20T16:39:53.212Z,100217.42
2018-12-20T16:44:56.612Z,100216.56
2018-12-20T16:49:59.926Z,100214.25
2018-12-20T16:55:03.341Z,100214.47
2018-12-20T17:00:08.642Z,100217.16
2018-12-20T17:05:12.002Z,100217.78
2018-12-20T17:10:15.376Z,100218.86
2018-12-20T17:15:18.706Z,100218.50
2018-12-20T17:20:22.009Z,100215.45
2018-12-20T17:25:25.321Z,100216.54
2018-12-20T17:30:28.698Z,100222.67
2018-12-20T17:35:32.000Z,100227.55
2018-12-20T17:40:35.328Z,100221.55
2018-12-20T17:45:38.634Z,100215.20
2018-12-20T17:50:41.944Z,100224.73
2018-12-20T17:55:45.257Z,100221.55
2018-12-20T18:00:48.592Z,100223.13
2018-12-20T18:05:51.951Z,100231.05
2018-12-20T18:10:55.248Z,100219.48
2018-12-20T18:15:58.735Z,100224.86
2018-12-20T18:21:02.154Z,100218.38
2018-12-20T18:26:07.278Z,100225.81
2018-12-20T18:31:12.319Z,100226.07
2018-12-20T18:36:17.656Z,100232.29
2018-12-20T18:41:22.709Z,100228.88
2018-12-20T18:46:29.125Z,100238.77
2018-12-20T18:51:32.469Z,100237.67
2018-12-20T18:56:35.780Z,100238.41
2018-12-20T19:01:39.083Z,100239.36
2018-12-20T19:06:42.389Z,100235.47
2018-12-20T19:11:45.709Z,100242.91
2018-12-20T19:16:49.078Z,100235.59
2018-12-20T19:21:53.005Z,100236.32
2018-12-20T19:26:56.294Z,100240.86
2018-12-20T19:31:59.649Z,100247.55
2018-12-20T19:37:03.133Z,100248.80
2018-12-20T19:42:11.866Z,100253.77
2018-12-20T19:47:16.809Z,100249.64
2018-12-20T19:52:21.966Z,100251.81
2018-12-20T19:57:27.228Z,100256.69
2018-12-20T20:02:32.381Z,100251.81
2018-12-20T20:07:37.732Z,100250.24
2018-12-20T20:12:42.798Z,100259.87
2018-12-20T20:17:47.837Z,100258.30
2018-12-20T20:22:52.782Z,100254.76
2018-12-20T20:27:57.890Z,100264.52
2018-12-20T20:33:01.206Z,100260.87
2018-12-20T20:38:04.502Z,100258.55
2018-12-20T20:43:07.806Z,100255.87
2018-12-20T20:48:11.126Z,100252.92
2018-12-20T20:53:14.494Z,100249.02
2018-12-20T20:58:17.793Z,100248.64
2018-12-20T21:03:21.104Z,100252.92
2018-12-20T21:08:24.404Z,100246.70
2018-12-20T21:13:27.824Z,100250.63
2018-12-20T21:18:31.124Z,100253.28
2018-12-20T21:23:34.422Z,100253.44
2018-12-20T21:28:37.732Z,100245.38
2018-12-20T21:33:41.034Z,100244.89
2018-12-20T21:38:44.325Z,100252.09
2018-12-20T21:43:47.613Z,100254.28
2018-12-20T21:48:50.909Z,100259.16
2018-12-20T21:53:55.027Z,100258.32
2018-12-20T21:58:58.645Z,100265.62
2018-12-20T22:04:01.934Z,100256.95
2018-12-20T22:09:06.855Z,100259.16
2018-12-20T22:14:10.212Z,100255.26
2018-12-20T22:19:13.586Z,100259.55
2018-12-20T22:24:16.888Z,100247.69
2018-12-20T22:29:20.177Z,100253.91
2018-12-20T22:34:23.465Z,100247.69
2018-12-20T22:39:26.797Z,100243.66
2018-12-20T22:44:30.093Z,100234.63
2018-12-20T22:49:33.398Z,100239.02
2018-12-20T22:54:36.694Z,100236.83
2018-12-20T22:59:39.984Z,100236.83
2018-12-20T23:04:43.277Z,100240.85
2018-12-20T23:09:46.598Z,100240.00
2018-12-20T23:14:49.927Z,100243.91
2018-12-20T23:19:53.257Z,100240.02
2018-12-20T23:24:56.591Z,100232.07
2018-12-20T23:29:59.914Z,100228.77
2018-12-20T23:35:03.424Z,100226.84
2018-12-20T23:40:06.764Z,100218.03
2018-12-20T23:45:10.097Z,100216.95
2018-12-20T23:50:14.580Z,100200.70
2018-12-20T23:55:17.908Z,100199.37
